createdAt,value
2022-10-20T00:01:55.760Z,96747.34
2022-10-20T00:04:24.845Z,96741.81
2022-10-20T00:06:52.541Z,96742.38
2022-10-20T00:09:20.313Z,96738.69
2022-10-20T00:11:48.121Z,96733.13
2022-10-20T00:14:15.794Z,96733.63
2022-10-20T00:16:43.606Z,96733.94
2022-10-20T00:19:12.584Z,96730.25
2022-10-20T00:21:41.749Z,96726.25
2022-10-20T00:24:09.583Z,96728.38
2022-10-20T00:26:37.639Z,96721.88
2022-10-20T00:29:05.787Z,96727.72
2022-10-20T00:31:34.061Z,96721.34
2022-10-20T00:34:01.808Z,96711.25
2022-10-20T00:36:29.927Z,96706.97
2022-10-20T00:39:00.833Z,96704.34
2022-10-20T00:41:29.552Z,96713.34
2022-10-20T00:43:59.822Z,96707.91
2022-10-20T00:46:33.800Z,96705.44
2022-10-20T00:49:07.528Z,96706.22
2022-10-20T00:51:36.057Z,96709.50
2022-10-20T00:54:09.862Z,96708.19
2022-10-20T00:56:41.043Z,96705.31
2022-10-20T00:59:09.552Z,96709.81
2022-10-20T01:01:38.822Z,96707.28
2022-10-20T01:04:07.262Z,96678.53
2022-10-20T01:06:35.091Z,96698.44
2022-10-20T01:09:03.277Z,96696.28
2022-10-20T01:11:42.327Z,96690.59
2022-10-20T01:14:28.146Z,96691.22
2022-10-20T01:17:04.239Z,96688.59
2022-10-20T01:19:58.303Z,96686.38
2022-10-20T01:22:44.236Z,96688.09
2022-10-20T01:25:23.364Z,96683.75
2022-10-20T01:27:56.747Z,96663.47
2022-10-20T01:30:25.120Z,96667.78
2022-10-20T01:33:09.425Z,96657.03
2022-10-20T01:35:47.911Z,96668.84
2022-10-20T01:38:24.549Z,96666.00
2022-10-20T01:40:59.997Z,96664.38
2022-10-20T01:43:34.099Z,96666.25
2022-10-20T01:46:03.136Z,96662.94
2022-10-20T01:48:35.366Z,96648.19
2022-10-20T01:51:05.161Z,96641.19
2022-10-20T01:53:33.212Z,96647.34
2022-10-20T01:56:02.862Z,96642.88
2022-10-20T01:59:21.335Z,96652.94
2022-10-20T02:02:07.289Z,96660.44
2022-10-20T02:04:50.243Z,96651.94
2022-10-20T02:07:25.955Z,96642.19
2022-10-20T02:09:57.446Z,96637.25
2022-10-20T02:12:29.010Z,96636.22
2022-10-20T02:14:57.578Z,96642.75
2022-10-20T02:17:26.819Z,96652.38
2022-10-20T02:19:55.045Z,96643.72
2022-10-20T02:22:24.191Z,96632.53
2022-10-20T02:24:52.093Z,96626.66
2022-10-20T02:27:24.158Z,96631.75
2022-10-20T02:29:53.539Z,96629.28
2022-10-20T02:32:22.516Z,96626.72
2022-10-20T02:34:51.653Z,96631.19
2022-10-20T02:37:19.497Z,96633.53
2022-10-20T02:39:47.226Z,96634.56
2022-10-20T02:42:17.098Z,96635.97
2022-10-20T02:44:44.811Z,96635.41
2022-10-20T02:47:12.499Z,96634.69
2022-10-20T02:49:40.202Z,96631.88
2022-10-20T02:52:09.350Z,96636.09
2022-10-20T02:54:37.049Z,96642.50
2022-10-20T02:57:04.957Z,96626.19
2022-10-20T02:59:33.330Z,96631.88
2022-10-20T03:02:01.080Z,96635.50
2022-10-20T03:04:28.977Z,96637.44
2022-10-20T03:06:56.719Z,96642.81
2022-10-20T03:09:25.911Z,96643.34
2022-10-20T03:11:53.652Z,96647.13
2022-10-20T03:14:21.456Z,96638.03
2022-10-20T03:16:49.293Z,96627.84
2022-10-20T03:19:17.034Z,96634.31
2022-10-20T03:21:44.744Z,96650.63
2022-10-20T03:24:12.471Z,96652.50
2022-10-20T03:26:41.514Z,96652.56
2022-10-20T03:29:09.346Z,96655.00
2022-10-20T03:31:37.113Z,96654.75
2022-10-20T03:34:04.862Z,96647.75
2022-10-20T03:36:32.576Z,96630.59
2022-10-20T03:39:00.346Z,96624.94
2022-10-20T03:41:28.040Z,96621.53
2022-10-20T03:43:57.142Z,96612.88
2022-10-20T03:46:25.228Z,96615.19
2022-10-20T03:48:52.931Z,96618.91
2022-10-20T03:51:20.733Z,96628.22
2022-10-20T03:53:48.458Z,96637.38
2022-10-20T03:56:19.085Z,96632.03
2022-10-20T03:58:46.928Z,96629.06
2022-10-20T04:01:17.684Z,96613.16
2022-10-20T04:03:45.842Z,96601.75
2022-10-20T04:06:14.181Z,96608.84
2022-10-20T04:08:42.270Z,96612.16
2022-10-20T04:11:10.290Z,96618.59
2022-10-20T04:13:38.048Z,96611.00
2022-10-20T04:16:06.120Z,96619.84
2022-10-20T04:18:35.230Z,96621.91
2022-10-20T04:21:03.017Z,96622.91
2022-10-20T04:23:30.744Z,96615.84
2022-10-20T04:25:58.453Z,96617.22
2022-10-20T04:28:26.219Z,96611.59
2022-10-20T04:30:54.532Z,96607.28
2022-10-20T04:33:22.251Z,96557.19
2022-10-20T04:35:58.350Z,96592.97
2022-10-20T04:38:26.066Z,96582.38
2022-10-20T04:41:00.303Z,96572.69
2022-10-20T04:43:52.327Z,96562.66
2022-10-20T04:46:21.192Z,96567.09
2022-10-20T04:48:48.992Z,96568.44
2022-10-20T04:51:18.640Z,96578.63
2022-10-20T04:53:46.509Z,96572.69
2022-10-20T04:56:18.349Z,96584.28
2022-10-20T04:58:48.855Z,96576.75
2022-10-20T05:01:16.653Z,96572.44
2022-10-20T05:03:44.815Z,96571.56
2022-10-20T05:06:15.294Z,96568.91
2022-10-20T05:08:46.481Z,96569.59
2022-10-20T05:11:15.775Z,96570.19
2022-10-20T05:13:44.059Z,96571.75
2022-10-20T05:16:12.592Z,96564.59
2022-10-20T05:18:40.969Z,96563.53
2022-10-20T05:21:10.214Z,96550.66
2022-10-20T05:23:38.787Z,96550.91
2022-10-20T05:26:09.884Z,96556.16
2022-10-20T05:28:37.683Z,96552.03
2022-10-20T05:31:06.712Z,96546.25
2022-10-20T05:33:35.082Z,96537.59
2022-10-20T05:36:08.683Z,96544.28
2022-10-20T05:38:36.881Z,96535.56
2022-10-20T05:41:10.633Z,96522.16
2022-10-20T05:43:38.675Z,96521.38
2022-10-20T05:46:07.244Z,96508.38
2022-10-20T05:48:38.271Z,96513.69
2022-10-20T05:51:13.590Z,96514.81
2022-10-20T05:53:43.357Z,96510.22
2022-10-20T05:56:14.329Z,96517.84
2022-10-20T05:58:44.211Z,96521.00
2022-10-20T06:01:16.883Z,96516.31
2022-10-20T06:03:47.905Z,96536.69
2022-10-20T06:06:16.022Z,96527.38
2022-10-20T06:08:43.778Z,96533.03
2022-10-20T06:11:14.316Z,96544.38
2022-10-20T06:13:42.364Z,96544.63
2022-10-20T06:16:12.216Z,96549.31
2022-10-20T06:18:40.158Z,96546.94
2022-10-20T06:21:09.484Z,96553.00
2022-10-20T06:23:37.380Z,96540.22
2022-10-20T06:26:06.481Z,96538.19
2022-10-20T06:28:36.697Z,96551.44
2022-10-20T06:31:12.828Z,96550.38
2022-10-20T06:33:40.666Z,96557.94
2022-10-20T06:36:09.413Z,96547.13
2022-10-20T06:38:37.173Z,96559.03
2022-10-20T06:41:05.703Z,96564.66
2022-10-20T06:43:35.046Z,96560.50
2022-10-20T06:46:05.046Z,96568.16
2022-10-20T06:48:33.812Z,96568.66
2022-10-20T06:51:03.287Z,96560.06
2022-10-20T06:53:32.031Z,96564.72
2022-10-20T06:56:01.100Z,96545.47
2022-10-20T06:58:29.896Z,96548.50
2022-10-20T07:01:05.552Z,96547.91
2022-10-20T07:03:37.401Z,96560.19
2022-10-20T07:06:06.534Z,96555.50
2022-10-20T07:08:35.848Z,96557.31
2022-10-20T07:11:07.599Z,96546.16
2022-10-20T07:13:37.832Z,96547.50
2022-10-20T07:16:08.813Z,96559.59
2022-10-20T07:18:37.147Z,96563.34
2022-10-20T07:21:07.144Z,96559.75
2022-10-20T07:23:36.154Z,96566.22
2022-10-20T07:26:05.709Z,96574.28
2022-10-20T07:28:34.471Z,96582.34
2022-10-20T07:31:04.913Z,96572.66
2022-10-20T07:33:35.132Z,96572.84
2022-10-20T07:36:03.055Z,96590.44
2022-10-20T07:38:30.781Z,96594.56
2022-10-20T07:41:03.114Z,96594.28
2022-10-20T07:43:31.071Z,96595.38
2022-10-20T07:45:58.780Z,96597.25
2022-10-20T07:48:26.580Z,96596.59
2022-10-20T07:50:55.733Z,96594.41
2022-10-20T07:53:23.449Z,96597.09
2022-10-20T07:55:51.243Z,96597.47
2022-10-20T07:58:19.330Z,96598.31
2022-10-20T08:00:46.992Z,96612.91
2022-10-20T08:03:14.859Z,96609.59
2022-10-20T08:05:42.861Z,96614.59
2022-10-20T08:08:12.080Z,96623.25
2022-10-20T08:10:39.929Z,96632.38
2022-10-20T08:13:07.636Z,96628.59
2022-10-20T08:15:35.496Z,96625.34
2022-10-20T08:18:05.607Z,96621.13
2022-10-20T08:20:39.461Z,96631.34
2022-10-20T08:23:07.346Z,96640.28
2022-10-20T08:25:36.451Z,96663.75
2022-10-20T08:28:04.407Z,96663.34
2022-10-20T08:30:32.200Z,96655.94
2022-10-20T08:32:59.974Z,96669.03
2022-10-20T08:35:27.989Z,96669.94
2022-10-20T08:37:55.712Z,96664.31
2022-10-20T08:40:26.599Z,96675.63
2022-10-20T08:42:56.737Z,96666.00
2022-10-20T08:45:27.087Z,96673.75
2022-10-20T08:47:57.333Z,96673.19
2022-10-20T08:50:27.834Z,96676.94
2022-10-20T08:52:58.607Z,96673.97
2022-10-20T08:55:29.293Z,96662.13
2022-10-20T08:58:03.101Z,96656.13
2022-10-20T09:00:32.496Z,96658.50
2022-10-20T09:03:10.876Z,96666.69
2022-10-20T09:05:42.845Z,96651.59
2022-10-20T09:08:11.044Z,96655.81
2022-10-20T09:10:41.808Z,96668.97
2022-10-20T09:13:21.289Z,96653.25
2022-10-20T09:15:49.776Z,96660.31
2022-10-20T09:18:18.185Z,96657.59
2022-10-20T09:20:50.121Z,96655.75
2022-10-20T09:23:39.865Z,96658.75
2022-10-20T09:26:24.862Z,96646.34
2022-10-20T09:29:13.358Z,96659.81
2022-10-20T09:31:44.169Z,96644.72
2022-10-20T09:34:22.974Z,96652.06
2022-10-20T09:36:52.440Z,96649.88
2022-10-20T09:39:23.104Z,96646.91
2022-10-20T09:41:59.764Z,96647.97
2022-10-20T09:44:29.327Z,96656.66
2022-10-20T09:46:57.110Z,96654.75
2022-10-20T09:49:29.144Z,96666.91
2022-10-20T09:51:56.701Z,96662.56
2022-10-20T09:54:26.808Z,96662.31
2022-10-20T09:56:55.634Z,96662.56
2022-10-20T09:59:32.245Z,96653.09
2022-10-20T10:02:02.319Z,96651.75
2022-10-20T10:04:33.573Z,96660.97
2022-10-20T10:07:01.445Z,96663.91
2022-10-20T10:09:34.127Z,96657.41
2022-10-20T10:12:05.445Z,96636.88
2022-10-20T10:14:36.338Z,96651.75
2022-10-20T10:17:04.202Z,96639.31
2022-10-20T10:19:34.478Z,96640.13
2022-10-20T10:22:04.438Z,96631.78
2022-10-20T10:24:40.050Z,96642.56
2022-10-20T10:27:26.964Z,96646.84
2022-10-20T10:29:57.336Z,96646.25
2022-10-20T10:32:27.106Z,96638.69
2022-10-20T10:35:07.824Z,96630.78
2022-10-20T10:37:36.711Z,96623.44
2022-10-20T10:40:15.349Z,96635.81
2022-10-20T10:42:56.076Z,96623.13
2022-10-20T10:45:41.231Z,96593.78
2022-10-20T10:48:45.689Z,96595.91
2022-10-20T10:51:21.723Z,96580.56
2022-10-20T10:54:00.221Z,96569.56
2022-10-20T10:56:36.860Z,96564.44
2022-10-20T10:59:11.283Z,96565.69
2022-10-20T11:01:58.877Z,96558.16
2022-10-20T11:04:44.855Z,96551.09
2022-10-20T11:07:25.204Z,96538.03
2022-10-20T11:10:03.406Z,96523.00
2022-10-20T11:12:50.956Z,96517.72
2022-10-20T11:15:34.924Z,96523.56
2022-10-20T11:18:13.374Z,96529.13
2022-10-20T11:20:49.577Z,96538.06
2022-10-20T11:23:44.791Z,96529.59
2022-10-20T11:26:21.569Z,96554.00
2022-10-20T11:28:53.109Z,96538.34
2022-10-20T11:31:27.734Z,96548.63
2022-10-20T11:34:01.879Z,96534.16
2022-10-20T11:36:36.461Z,96538.59
2022-10-20T11:39:06.681Z,96542.28
2022-10-20T11:44:15.520Z,96557.66
2022-10-20T11:46:48.460Z,96540.19
2022-10-20T11:49:19.208Z,96531.06
2022-10-20T11:52:22.398Z,96541.41
2022-10-20T11:55:08.354Z,96541.63
2022-10-20T11:57:57.697Z,96537.78
2022-10-20T12:00:40.345Z,96531.75
2022-10-20T12:03:43.584Z,96517.78
2022-10-20T12:06:32.011Z,96516.31
2022-10-20T12:09:19.946Z,96489.72
2022-10-20T12:11:53.011Z,96506.06
2022-10-20T12:14:27.071Z,96489.25
2022-10-20T12:17:16.180Z,96473.50
2022-10-20T12:19:44.434Z,96464.06
2022-10-20T12:22:42.709Z,96457.91
2022-10-20T12:25:24.218Z,96446.03
2022-10-20T12:28:25.232Z,96419.47
2022-10-20T12:30:59.231Z,96419.72
2022-10-20T12:33:38.357Z,96417.75
2022-10-20T12:36:27.702Z,96398.16
2022-10-20T12:39:14.881Z,96406.63
2022-10-20T12:41:46.945Z,96399.31
2022-10-20T12:44:18.028Z,96387.03
2022-10-20T12:46:55.038Z,96395.53
2022-10-20T12:49:28.892Z,96397.25
2022-10-20T12:51:58.911Z,96407.09
2022-10-20T12:54:35.014Z,96402.44
2022-10-20T12:57:07.136Z,96401.75
2022-10-20T12:59:40.586Z,96386.09
2022-10-20T13:02:42.112Z,96390.63
2022-10-20T13:05:42.917Z,96398.47
2022-10-20T13:08:36.372Z,96376.19
2022-10-20T13:11:46.049Z,96371.56
2022-10-20T13:14:48.187Z,96374.56
2022-10-20T13:17:30.314Z,96381.22
2022-10-20T13:20:01.643Z,96385.84
2022-10-20T13:22:39.035Z,96393.34
2022-10-20T13:25:15.097Z,96400.47
2022-10-20T13:27:44.543Z,96405.78
2022-10-20T13:30:21.554Z,96385.63
2022-10-20T13:33:18.250Z,96399.97
2022-10-20T13:35:54.386Z,96413.41
2022-10-20T13:38:28.535Z,96404.41
2022-10-20T13:41:02.557Z,96419.69
2022-10-20T13:43:42.592Z,96405.72
2022-10-20T13:46:27.417Z,96417.13
2022-10-20T13:49:10.945Z,96417.22
2022-10-20T13:51:44.113Z,96413.94
2022-10-20T13:54:23.553Z,96401.78
2022-10-20T13:56:52.287Z,96398.81
2022-10-20T14:02:00.264Z,96413.16
2022-10-20T14:04:30.488Z,96438.13
2022-10-20T14:07:04.171Z,96423.28
2022-10-20T14:09:32.628Z,96448.56
2022-10-20T14:12:03.966Z,96443.16
2022-10-20T14:14:36.790Z,96414.53
2022-10-20T14:17:06.879Z,96422.97
2022-10-20T14:19:35.521Z,96413.94
2022-10-20T14:22:14.230Z,96414.97
2022-10-20T14:24:45.380Z,96405.38
2022-10-20T14:27:18.357Z,96389.81
2022-10-20T14:29:48.484Z,96394.09
2022-10-20T14:32:19.759Z,96409.16
2022-10-20T14:34:57.135Z,96414.56
2022-10-20T14:37:30.940Z,96422.91
2022-10-20T14:40:02.130Z,96401.88
2022-10-20T14:42:32.276Z,96390.94
2022-10-20T14:45:03.113Z,96394.53
2022-10-20T14:47:35.499Z,96370.69
2022-10-20T14:50:03.970Z,96399.53
2022-10-20T14:52:35.536Z,96409.16
2022-10-20T14:55:03.598Z,96381.72
2022-10-20T14:57:45.926Z,96382.59
2022-10-20T15:00:38.239Z,96388.03
2022-10-20T15:03:07.880Z,96400.56
2022-10-20T15:05:41.994Z,96384.19
2022-10-20T15:08:17.566Z,96372.22
2022-10-20T15:10:45.968Z,96372.00
2022-10-20T15:13:27.959Z,96367.19
2022-10-20T15:15:58.779Z,96367.94
2022-10-20T15:18:27.579Z,96375.88
2022-10-20T15:20:56.588Z,96380.75
2022-10-20T15:23:26.928Z,96370.41
2022-10-20T15:25:59.246Z,96386.75
2022-10-20T15:28:37.669Z,96381.31
2022-10-20T15:31:09.225Z,96375.72
2022-10-20T15:33:36.968Z,96378.78
2022-10-20T15:36:10.758Z,96385.78
2022-10-20T15:38:38.457Z,96370.09
2022-10-20T15:41:06.583Z,96373.91
2022-10-20T15:43:34.338Z,96368.25
2022-10-20T15:46:02.103Z,96376.72
2022-10-20T15:48:31.186Z,96378.06
2022-10-20T15:50:59.380Z,96382.06
2022-10-20T15:53:27.387Z,96374.06
2022-10-20T15:55:55.077Z,96387.81
2022-10-20T15:58:22.868Z,96399.72
2022-10-20T16:00:50.705Z,96411.88
2022-10-20T16:03:19.795Z,96392.47
2022-10-20T16:05:48.887Z,96391.38
2022-10-20T16:08:16.624Z,96387.34
2022-10-20T16:10:44.526Z,96378.16
2022-10-20T16:13:13.017Z,96351.72
2022-10-20T16:15:40.747Z,96350.38
2022-10-20T16:18:09.872Z,96345.50
2022-10-20T16:20:38.103Z,96320.19
2022-10-20T16:23:07.194Z,96330.16
2022-10-20T16:25:34.953Z,96331.22
2022-10-20T16:28:02.949Z,96339.56
2022-10-20T16:30:30.706Z,96334.19
2022-10-20T16:32:58.459Z,96335.25
2022-10-20T16:35:26.236Z,96335.81
2022-10-20T16:37:54.005Z,96340.66
2022-10-20T16:40:23.111Z,96341.22
2022-10-20T16:42:50.896Z,96355.22
2022-10-20T16:45:18.860Z,96352.25
2022-10-20T16:47:46.662Z,96347.13
2022-10-20T16:50:14.404Z,96367.34
2022-10-20T16:52:42.118Z,96365.72
2022-10-20T16:55:12.038Z,96375.69
2022-10-20T16:57:41.498Z,96399.69
2022-10-20T17:00:10.537Z,96393.75
2022-10-20T17:02:38.778Z,96393.25
2022-10-20T17:05:09.346Z,96404.84
2022-10-20T17:07:38.070Z,96410.50
2022-10-20T17:10:07.011Z,96428.81
2022-10-20T17:12:34.768Z,96422.09
2022-10-20T17:15:04.079Z,96408.63
2022-10-20T17:17:31.803Z,96406.72
2022-10-20T17:19:59.640Z,96391.34
2022-10-20T17:22:27.381Z,96396.19
2022-10-20T17:24:55.049Z,96388.66
2022-10-20T17:27:22.778Z,96401.84
2022-10-20T17:29:50.835Z,96393.22
2022-10-20T17:32:20.038Z,96415.06
2022-10-20T17:34:47.725Z,96419.09
2022-10-20T17:37:15.500Z,96430.16
2022-10-20T17:39:43.317Z,96434.44
2022-10-20T17:42:11.034Z,96453.31
2022-10-20T17:44:38.764Z,96444.97
2022-10-20T17:47:06.519Z,96463.03
2022-10-20T17:49:35.717Z,96456.56
2022-10-20T17:52:03.813Z,96461.38
2022-10-20T17:54:31.653Z,96443.59
2022-10-20T17:56:59.378Z,96460.31
2022-10-20T17:59:27.113Z,96458.16
2022-10-20T18:01:55.859Z,96447.44
2022-10-20T18:04:23.635Z,96449.81
2022-10-20T18:06:52.843Z,96430.38
2022-10-20T18:09:20.844Z,96433.06
2022-10-20T18:11:51.270Z,96424.97
2022-10-20T18:14:19.495Z,96429.00
2022-10-20T18:16:47.883Z,96422.81
2022-10-20T18:19:17.983Z,96414.44
2022-10-20T18:21:45.751Z,96414.16
2022-10-20T18:24:17.254Z,96416.56
2022-10-20T18:26:45.794Z,96419.28
2022-10-20T18:29:16.784Z,96405.25
2022-10-20T18:31:46.375Z,96409.84
2022-10-20T18:34:17.280Z,96430.56
2022-10-20T18:36:45.888Z,96414.63
2022-10-20T18:39:15.854Z,96428.97
2022-10-20T18:41:45.610Z,96419.28
2022-10-20T18:44:16.706Z,96436.78
2022-10-20T18:46:46.174Z,96453.44
2022-10-20T18:49:16.373Z,96436.22
2022-10-20T18:51:46.999Z,96430.06
2022-10-20T18:54:16.650Z,96432.75
2022-10-20T18:56:44.443Z,96433.81
2022-10-20T18:59:16.496Z,96431.94
2022-10-20T19:01:44.075Z,96438.97
2022-10-20T19:04:13.413Z,96450.00
2022-10-20T19:06:43.318Z,96452.09
2022-10-20T19:09:14.403Z,96472.50
2022-10-20T19:11:44.777Z,96459.91
2022-10-20T19:14:13.410Z,96441.88
2022-10-20T19:16:44.772Z,96406.31
2022-10-20T19:19:12.729Z,96372.34
2022-10-20T19:21:40.906Z,96289.03
2022-10-20T19:24:10.669Z,96340.03
2022-10-20T19:26:41.293Z,96410.63
2022-10-20T19:29:12.640Z,96409.31
2022-10-20T19:31:42.776Z,96369.72
2022-10-20T19:34:13.395Z,96390.19
2022-10-20T19:36:41.838Z,96400.13
2022-10-20T19:39:12.310Z,96407.38
2022-10-20T19:41:41.065Z,96378.03
2022-10-20T19:44:13.027Z,96368.06
2022-10-20T19:46:41.146Z,96389.06
2022-10-20T19:49:09.306Z,96348.66
2022-10-20T19:51:37.147Z,96316.31
2022-10-20T19:54:05.804Z,96372.25
2022-10-20T19:56:34.389Z,96379.00
2022-10-20T19:59:03.041Z,96372.53
2022-10-20T20:01:32.550Z,96397.31
2022-10-20T20:04:00.439Z,96395.13
2022-10-20T20:06:28.809Z,96392.19
2022-10-20T20:08:59.084Z,96393.75
2022-10-20T20:11:30.621Z,96378.31
2022-10-20T20:14:02.731Z,96399.03
2022-10-20T20:16:30.769Z,96410.66
2022-10-20T20:19:00.186Z,96379.16
2022-10-20T20:21:28.845Z,96397.00
2022-10-20T20:23:59.918Z,96407.47
2022-10-20T20:26:29.465Z,96393.19
2022-10-20T20:28:58.507Z,96372.72
2022-10-20T20:31:27.358Z,96369.75
2022-10-20T20:33:56.644Z,96345.00
2022-10-20T20:36:29.401Z,96340.44
2022-10-20T20:38:58.583Z,96353.59
2022-10-20T20:41:28.366Z,96361.91
2022-10-20T20:43:56.375Z,96366.19
2022-10-20T20:46:26.825Z,96367.84
2022-10-20T20:48:54.873Z,96396.13
2022-10-20T20:51:23.012Z,96349.59
2022-10-20T20:53:52.444Z,96345.25
2022-10-20T20:56:23.234Z,96320.47
2022-10-20T20:58:55.284Z,96335.06
2022-10-20T21:01:25.215Z,96349.72
2022-10-20T21:03:54.890Z,96380.25
2022-10-20T21:06:28.794Z,96334.16
2022-10-20T21:09:03.540Z,96353.28
2022-10-20T21:11:31.559Z,96358.66
2022-10-20T21:13:59.885Z,96357.28
2022-10-20T21:16:29.504Z,96359.13
2022-10-20T21:18:59.246Z,96364.56
2022-10-20T21:21:28.724Z,96355.44
2022-10-20T21:23:57.401Z,96368.34
2022-10-20T21:26:28.491Z,96373.13
2022-10-20T21:28:57.024Z,96352.69
2022-10-20T21:31:26.462Z,96365.38
2022-10-20T21:33:55.936Z,96363.69
2022-10-20T21:36:24.860Z,96341.63
2022-10-20T21:38:52.954Z,96344.38
2022-10-20T21:41:22.968Z,96356.47
2022-10-20T21:43:54.349Z,96357.78
2022-10-20T21:46:25.052Z,96354.03
2022-10-20T21:48:54.814Z,96344.34
2022-10-20T21:51:24.597Z,96350.56
2022-10-20T21:53:55.682Z,96355.38
2022-10-20T21:56:23.426Z,96332.19
2022-10-20T21:58:53.975Z,96311.75
2022-10-20T22:01:23.905Z,96319.59
2022-10-20T22:03:53.527Z,96337.09
2022-10-20T22:06:23.350Z,96345.72
2022-10-20T22:08:53.680Z,96320.88
2022-10-20T22:11:23.730Z,96329.50
2022-10-20T22:13:53.087Z,96332.75
2022-10-20T22:16:23.508Z,96327.41
2022-10-20T22:18:55.604Z,96332.28
2022-10-20T22:21:23.232Z,96331.72
2022-10-20T22:23:53.763Z,96336.00
2022-10-20T22:26:22.174Z,96335.44
2022-10-20T22:28:52.716Z,96335.13
2022-10-20T22:31:20.661Z,96334.63
2022-10-20T22:33:48.577Z,96338.44
2022-10-20T22:36:16.473Z,96331.16
2022-10-20T22:38:44.270Z,96340.34
2022-10-20T22:41:13.005Z,96354.16
2022-10-20T22:43:41.127Z,96346.56
2022-10-20T22:46:10.482Z,96334.50
2022-10-20T22:48:38.757Z,96344.09
2022-10-20T22:51:06.935Z,96328.94
2022-10-20T22:53:34.949Z,96329.78
2022-10-20T22:56:07.509Z,96341.47
2022-10-20T22:58:35.933Z,96324.22
2022-10-20T23:01:08.054Z,96333.84
2022-10-20T23:03:37.535Z,96348.44
2022-10-20T23:06:09.820Z,96337.59
2022-10-20T23:08:41.970Z,96339.81
2022-10-20T23:11:10.265Z,96307.88
2022-10-20T23:13:38.174Z,96341.06
2022-10-20T23:16:06.488Z,96317.91
2022-10-20T23:18:34.976Z,96305.53
2022-10-20T23:21:04.899Z,96324.16
2022-10-20T23:23:33.541Z,96336.72
2022-10-20T23:26:03.815Z,96344.56
2022-10-20T23:28:32.555Z,96340.75
2022-10-20T23:31:09.316Z,96357.69
2022-10-20T23:33:37.394Z,96360.00
2022-10-20T23:36:07.333Z,96367.59
2022-10-20T23:38:35.464Z,96369.78
2022-10-20T23:41:03.604Z,96379.72
2022-10-20T23:43:31.377Z,96367.06
2022-10-20T23:45:59.248Z,96366.47
2022-10-20T23:48:27.347Z,96367.84
2022-10-20T23:50:55.502Z,96372.69
2022-10-20T23:53:25.295Z,96364.56
2022-10-20T23:55:53.195Z,96353.31
2022-10-20T23:58:22.521Z,96355.03
